Ourinhos Airport


Codes: SDOU/OUS
Name: Ourinhos Airport
City: Ourinhos
Country: Brazil
Elevation: 1532 ft.

Photos at Ourinhos Airport


   Photos courtesy of SpottingLog. You can add your own sightings and photos by signing up for a free trial today.



No photos found.

Weather at Ourinhos Airport


Time (UTC)DescriptionTempratureWindCloud coverageVisibilityPressureHumidity
16-Jun-2024 00:00Few Clouds20°C4 mph, E14%10000m1018hPa50%
16-Jun-2024 03:00Scattered Clouds20°C4 mph, E28%10000m1018hPa51%
16-Jun-2024 06:00Scattered Clouds18°C4 mph, SE30%10000m1018hPa55%
16-Jun-2024 09:00Scattered Clouds16°C4 mph, E41%10000m1018hPa59%
16-Jun-2024 12:00Scattered Clouds21°C7 mph, NE27%10000m1019hPa45%
16-Jun-2024 15:00Clear Sky30°C7 mph, N5%10000m1017hPa26%
16-Jun-2024 18:00Scattered Clouds31°C7 mph, N36%10000m1014hPa24%
16-Jun-2024 21:00Few Clouds23°C0 mph, NE14%10000m1014hPa38%
17-Jun-2024 00:00Clear Sky20°C4 mph, E7%10000m1015hPa44%
17-Jun-2024 03:00Clear Sky18°C4 mph, E2%10000m1015hPa48%
17-Jun-2024 06:00Clear Sky17°C2 mph, E2%10000m1015hPa53%
17-Jun-2024 09:00Few Clouds16°C4 mph, E14%10000m1015hPa56%
17-Jun-2024 12:00Scattered Clouds21°C4 mph, NE26%10000m1016hPa42%
17-Jun-2024 15:00Few Clouds30°C9 mph, N15%10000m1014hPa26%
17-Jun-2024 18:00Clear Sky32°C7 mph, N10%10000m1011hPa22%
17-Jun-2024 21:00Clear Sky24°C4 mph, NE1%10000m1011hPa36%
18-Jun-2024 00:00Clear Sky20°C4 mph, E1%10000m1012hPa43%
18-Jun-2024 03:00Clear Sky17°C4 mph, E0%10000m1013hPa45%
18-Jun-2024 06:00Clear Sky16°C4 mph, E0%10000m1013hPa45%
18-Jun-2024 09:00Few Clouds15°C4 mph, E11%10000m1014hPa49%
18-Jun-2024 12:00Scattered Clouds20°C4 mph, NE31%10000m1016hPa40%
18-Jun-2024 15:00Scattered Clouds30°C9 mph, N25%10000m1013hPa24%
18-Jun-2024 18:00Few Clouds31°C7 mph, N15%10000m1010hPa21%
18-Jun-2024 21:00Clear Sky24°C2 mph, E4%10000m1011hPa34%
19-Jun-2024 00:00Clear Sky21°C4 mph, E3%10000m1013hPa40%
19-Jun-2024 03:00Clear Sky18°C4 mph, E0%10000m1014hPa44%
19-Jun-2024 06:00Clear Sky16°C4 mph, E1%10000m1014hPa43%
19-Jun-2024 09:00Clear Sky15°C4 mph, SE0%10000m1015hPa45%
19-Jun-2024 12:00Clear Sky21°C4 mph, NE0%10000m1017hPa34%
19-Jun-2024 15:00Clear Sky31°C7 mph, N0%10000m1015hPa19%
19-Jun-2024 18:00Clear Sky32°C9 mph, N0%10000m1011hPa17%
19-Jun-2024 21:00Clear Sky24°C2 mph, E0%10000m1011hPa29%
20-Jun-2024 00:00Clear Sky20°C4 mph, E0%10000m1014hPa37%
20-Jun-2024 03:00Clear Sky18°C4 mph, E0%10000m1014hPa41%
20-Jun-2024 06:00Clear Sky17°C4 mph, SE0%10000m1014hPa43%
20-Jun-2024 09:00Clear Sky16°C4 mph, E0%10000m1015hPa45%
20-Jun-2024 12:00Clear Sky21°C7 mph, E0%10000m1016hPa33%
20-Jun-2024 15:00Clear Sky32°C7 mph, N1%10000m1014hPa21%
20-Jun-2024 18:00Clear Sky33°C7 mph, NW4%10000m1011hPa18%
20-Jun-2024 21:00Broken Clouds27°C4 mph, SW55%10000m1012hPa28%